sensor_id;sensor_type;location;lat;lon;timestamp;temperature;humidity
23769;DHT22;12064;50.890;5.424;2023-02-26T00:07:59;22.40;65.70
23769;DHT22;12064;50.890;5.424;2023-02-26T00:26:01;21.40;67.90
23769;DHT22;12064;50.890;5.424;2023-02-26T00:34:52;20.90;69.80
23769;DHT22;12064;50.890;5.424;2023-02-26T00:43:46;20.60;70.60
23769;DHT22;12064;50.890;5.424;2023-02-26T00:53:21;20.60;70.80
23769;DHT22;12064;50.890;5.424;2023-02-26T01:02:16;20.70;70.50
23769;DHT22;12064;50.890;5.424;2023-02-26T01:11:07;21.20;69.00
23769;DHT22;12064;50.890;5.424;2023-02-26T01:20:17;21.80;66.70
23769;DHT22;12064;50.890;5.424;2023-02-26T01:29:08;22.10;65.50
23769;DHT22;12064;50.890;5.424;2023-02-26T01:56:26;20.70;69.80
23769;DHT22;12064;50.890;5.424;2023-02-26T02:05:47;20.50;70.50
23769;DHT22;12064;50.890;5.424;2023-02-26T02:15:03;20.40;70.40
23769;DHT22;12064;50.890;5.424;2023-02-26T02:33:30;21.00;68.60
23769;DHT22;12064;50.890;5.424;2023-02-26T02:42:46;21.70;66.20
23769;DHT22;12064;50.890;5.424;2023-02-26T02:52:01;21.20;66.90
23769;DHT22;12064;50.890;5.424;2023-02-26T03:00:59;20.70;69.30
23769;DHT22;12064;50.890;5.424;2023-02-26T03:09:51;20.50;69.90
23769;DHT22;12064;50.890;5.424;2023-02-26T03:46:17;21.40;66.60
23769;DHT22;12064;50.890;5.424;2023-02-26T03:55:16;21.60;65.60
23769;DHT22;12064;50.890;5.424;2023-02-26T04:04:08;20.80;68.20
23769;DHT22;12064;50.890;5.424;2023-02-26T04:13:01;20.50;69.30
23769;DHT22;12064;50.890;5.424;2023-02-26T04:21:55;20.40;69.70
23769;DHT22;12064;50.890;5.424;2023-02-26T04:30:46;20.40;69.50
23769;DHT22;12064;50.890;5.424;2023-02-26T04:39:39;20.60;69.20
23769;DHT22;12064;50.890;5.424;2023-02-26T04:48:30;20.80;68.60
23769;DHT22;12064;50.890;5.424;2023-02-26T04:57:21;21.00;68.20
23769;DHT22;12064;50.890;5.424;2023-02-26T05:06:11;21.40;67.20
23769;DHT22;12064;50.890;5.424;2023-02-26T05:15:05;21.70;66.50
23769;DHT22;12064;50.890;5.424;2023-02-26T05:23:56;21.60;66.70
23769;DHT22;12064;50.890;5.424;2023-02-26T05:32:47;21.60;67.00
23769;DHT22;12064;50.890;5.424;2023-02-26T05:42:01;21.90;66.40
23769;DHT22;12064;50.890;5.424;2023-02-26T05:50:51;22.10;65.80
23769;DHT22;12064;50.890;5.424;2023-02-26T05:59:42;22.10;66.50
23769;DHT22;12064;50.890;5.424;2023-02-26T06:08:33;22.20;67.40
23769;DHT22;12064;50.890;5.424;2023-02-26T06:17:23;22.50;66.30
23769;DHT22;12064;50.890;5.424;2023-02-26T06:26:14;22.40;66.50
23769;DHT22;12064;50.890;5.424;2023-02-26T06:35:06;23.10;66.00
23769;DHT22;12064;50.890;5.424;2023-02-26T06:43:57;23.20;65.00
23769;DHT22;12064;50.890;5.424;2023-02-26T06:52:48;24.00;63.70
23769;DHT22;12064;50.890;5.424;2023-02-26T07:01:40;24.10;64.40
23769;DHT22;12064;50.890;5.424;2023-02-26T07:10:32;23.90;64.40
23769;DHT22;12064;50.890;5.424;2023-02-26T07:19:23;24.20;64.60
23769;DHT22;12064;50.890;5.424;2023-02-26T07:28:15;24.50;63.90
23769;DHT22;12064;50.890;5.424;2023-02-26T07:37:05;24.50;63.90
23769;DHT22;12064;50.890;5.424;2023-02-26T07:45:56;24.30;64.60
23769;DHT22;12064;50.890;5.424;2023-02-26T07:54:47;24.50;64.10
23769;DHT22;12064;50.890;5.424;2023-02-26T08:03:38;24.30;65.20
23769;DHT22;12064;50.890;5.424;2023-02-26T08:12:29;24.50;64.60
23769;DHT22;12064;50.890;5.424;2023-02-26T08:21:21;24.50;64.80
23769;DHT22;12064;50.890;5.424;2023-02-26T08:30:12;24.50;64.60
23769;DHT22;12064;50.890;5.424;2023-02-26T08:39:04;24.40;64.00
23769;DHT22;12064;50.890;5.424;2023-02-26T08:47:57;24.50;63.10
23769;DHT22;12064;50.890;5.424;2023-02-26T08:56:51;24.40;62.50
23769;DHT22;12064;50.890;5.424;2023-02-26T09:05:47;23.90;63.50
23769;DHT22;12064;50.890;5.424;2023-02-26T09:14:37;24.30;63.10
23769;DHT22;12064;50.890;5.424;2023-02-26T09:23:28;24.50;63.30
23769;DHT22;12064;50.890;5.424;2023-02-26T09:32:19;24.50;63.40
23769;DHT22;12064;50.890;5.424;2023-02-26T09:41:20;24.30;63.30
23769;DHT22;12064;50.890;5.424;2023-02-26T09:50:22;24.60;62.80
23769;DHT22;12064;50.890;5.424;2023-02-26T09:59:16;24.70;63.10
23769;DHT22;12064;50.890;5.424;2023-02-26T10:08:14;24.70;62.60
23769;DHT22;12064;50.890;5.424;2023-02-26T10:17:32;24.70;61.40
23769;DHT22;12064;50.890;5.424;2023-02-26T10:26:35;24.40;61.90
23769;DHT22;12064;50.890;5.424;2023-02-26T10:35:32;24.40;61.20
23769;DHT22;12064;50.890;5.424;2023-02-26T10:44:35;24.30;62.30
23769;DHT22;12064;50.890;5.424;2023-02-26T10:53:33;24.50;62.20
23769;DHT22;12064;50.890;5.424;2023-02-26T11:02:38;24.50;62.20
23769;DHT22;12064;50.890;5.424;2023-02-26T11:11:40;24.20;62.20
23769;DHT22;12064;50.890;5.424;2023-02-26T11:20:43;24.40;61.60
23769;DHT22;12064;50.890;5.424;2023-02-26T11:29:37;24.00;61.70
23769;DHT22;12064;50.890;5.424;2023-02-26T11:38:28;22.60;65.20
23769;DHT22;12064;50.890;5.424;2023-02-26T11:47:24;22.40;65.90
23769;DHT22;12064;50.890;5.424;2023-02-26T11:56:33;22.20;66.10
23769;DHT22;12064;50.890;5.424;2023-02-26T12:05:25;21.90;66.30
23769;DHT22;12064;50.890;5.424;2023-02-26T12:32:35;21.70;65.80
23769;DHT22;12064;50.890;5.424;2023-02-26T13:27:35;21.60;65.90
23769;DHT22;12064;50.890;5.424;2023-02-26T13:36:28;22.80;64.20
23769;DHT22;12064;50.890;5.424;2023-02-26T13:54:43;23.60;62.30
23769;DHT22;12064;50.890;5.424;2023-02-26T14:12:36;23.70;61.10
23769;DHT22;12064;50.890;5.424;2023-02-26T14:30:32;23.90;61.10
23769;DHT22;12064;50.890;5.424;2023-02-26T14:39:37;23.70;60.70
23769;DHT22;12064;50.890;5.424;2023-02-26T14:48:30;23.00;62.70
23769;DHT22;12064;50.890;5.424;2023-02-26T15:15:52;21.60;65.80
23769;DHT22;12064;50.890;5.424;2023-02-26T15:24:45;21.50;66.00
23769;DHT22;12064;50.890;5.424;2023-02-26T15:33:39;21.30;66.30
23769;DHT22;12064;50.890;5.424;2023-02-26T15:42:35;21.10;66.60
23769;DHT22;12064;50.890;5.424;2023-02-26T15:51:28;21.10;66.80
23769;DHT22;12064;50.890;5.424;2023-02-26T16:00:20;21.10;66.50
23769;DHT22;12064;50.890;5.424;2023-02-26T16:09:53;21.70;66.20
23769;DHT22;12064;50.890;5.424;2023-02-26T16:18:44;21.50;66.00
23769;DHT22;12064;50.890;5.424;2023-02-26T16:27:35;21.20;66.50
23769;DHT22;12064;50.890;5.424;2023-02-26T16:36:30;21.30;66.30
23769;DHT22;12064;50.890;5.424;2023-02-26T16:54:29;21.20;66.50
23769;DHT22;12064;50.890;5.424;2023-02-26T17:03:23;21.10;66.40
23769;DHT22;12064;50.890;5.424;2023-02-26T17:12:21;21.10;66.40
23769;DHT22;12064;50.890;5.424;2023-02-26T17:21:12;21.10;66.30
23769;DHT22;12064;50.890;5.424;2023-02-26T17:30:04;21.00;66.50
23769;DHT22;12064;50.890;5.424;2023-02-26T17:38:56;20.90;66.80
23769;DHT22;12064;50.890;5.424;2023-02-26T17:47:49;20.80;67.00
23769;DHT22;12064;50.890;5.424;2023-02-26T17:56:40;21.00;66.50
23769;DHT22;12064;50.890;5.424;2023-02-26T18:05:35;21.10;66.30
23769;DHT22;12064;50.890;5.424;2023-02-26T18:14:31;21.00;66.40
23769;DHT22;12064;50.890;5.424;2023-02-26T18:23:21;21.00;66.70
23769;DHT22;12064;50.890;5.424;2023-02-26T18:32:14;20.90;66.90
23769;DHT22;12064;50.890;5.424;2023-02-26T18:41:05;20.90;66.80
23769;DHT22;12064;50.890;5.424;2023-02-26T18:49:56;21.10;66.20
23769;DHT22;12064;50.890;5.424;2023-02-26T18:58:47;21.10;66.30
23769;DHT22;12064;50.890;5.424;2023-02-26T19:07:38;21.00;66.30
23769;DHT22;12064;50.890;5.424;2023-02-26T19:16:29;21.00;66.70
23769;DHT22;12064;50.890;5.424;2023-02-26T19:25:24;22.10;65.70
23769;DHT22;12064;50.890;5.424;2023-02-26T19:34:19;23.10;63.50
23769;DHT22;12064;50.890;5.424;2023-02-26T19:43:10;23.40;62.10
23769;DHT22;12064;50.890;5.424;2023-02-26T19:52:01;23.80;61.50
23769;DHT22;12064;50.890;5.424;2023-02-26T20:00:54;23.90;61.00
23769;DHT22;12064;50.890;5.424;2023-02-26T20:09:45;24.10;60.70
23769;DHT22;12064;50.890;5.424;2023-02-26T20:18:36;23.90;61.40
23769;DHT22;12064;50.890;5.424;2023-02-26T20:27:27;24.00;62.00
23769;DHT22;12064;50.890;5.424;2023-02-26T20:36:20;23.90;61.40
23769;DHT22;12064;50.890;5.424;2023-02-26T20:45:11;23.90;60.90
23769;DHT22;12064;50.890;5.424;2023-02-26T20:54:04;23.80;60.90
23769;DHT22;12064;50.890;5.424;2023-02-26T21:02:55;22.90;62.70
23769;DHT22;12064;50.890;5.424;2023-02-26T21:11:49;22.20;65.40
23769;DHT22;12064;50.890;5.424;2023-02-26T21:20:41;22.00;66.10
23769;DHT22;12064;50.890;5.424;2023-02-26T21:29:36;23.20;63.80
23769;DHT22;12064;50.890;5.424;2023-02-26T21:38:30;23.70;62.40
23769;DHT22;12064;50.890;5.424;2023-02-26T21:47:23;23.80;61.40
23769;DHT22;12064;50.890;5.424;2023-02-26T21:56:16;23.80;60.80
23769;DHT22;12064;50.890;5.424;2023-02-26T22:05:08;23.60;60.90
23769;DHT22;12064;50.890;5.424;2023-02-26T22:14:02;23.40;61.20
23769;DHT22;12064;50.890;5.424;2023-02-26T22:22:53;23.20;61.30
23769;DHT22;12064;50.890;5.424;2023-02-26T22:31:43;23.10;61.50
23769;DHT22;12064;50.890;5.424;2023-02-26T22:40:34;22.20;63.30
23769;DHT22;12064;50.890;5.424;2023-02-26T22:49:28;21.40;65.60
23769;DHT22;12064;50.890;5.424;2023-02-26T22:58:19;21.20;66.20
23769;DHT22;12064;50.890;5.424;2023-02-26T23:07:09;21.40;65.70
23769;DHT22;12064;50.890;5.424;2023-02-26T23:16:02;21.90;63.90
23769;DHT22;12064;50.890;5.424;2023-02-26T23:24:56;22.50;62.20
23769;DHT22;12064;50.890;5.424;2023-02-26T23:33:47;22.40;62.10
23769;DHT22;12064;50.890;5.424;2023-02-26T23:42:37;21.50;64.50
23769;DHT22;12064;50.890;5.424;2023-02-26T23:51:31;21.00;65.80
